sensor_id;sensor_type;location;lat;lon;timestamp;P1;durP1;ratioP1;P2;durP2;ratioP2
74656;SDS011;63185;45.642;13.764;2023-02-28T00:00:20;14.75;;;8.50;;
74656;SDS011;63185;45.642;13.764;2023-02-28T00:02:46;20.23;;;8.95;;
74656;SDS011;63185;45.642;13.764;2023-02-28T00:05:14;16.42;;;9.43;;
74656;SDS011;63185;45.642;13.764;2023-02-28T00:07:43;17.60;;;8.70;;
74656;SDS011;63185;45.642;13.764;2023-02-28T00:10:09;15.38;;;8.90;;
74656;SDS011;63185;45.642;13.764;2023-02-28T00:12:37;16.75;;;9.20;;
74656;SDS011;63185;45.642;13.764;2023-02-28T00:15:07;18.67;;;9.00;;
74656;SDS011;63185;45.642;13.764;2023-02-28T00:17:35;14.93;;;8.80;;
74656;SDS011;63185;45.642;13.764;2023-02-28T00:20:01;14.85;;;8.63;;
74656;SDS011;63185;45.642;13.764;2023-02-28T00:22:37;16.95;;;9.18;;
74656;SDS011;63185;45.642;13.764;2023-02-28T00:25:04;17.70;;;8.90;;
74656;SDS011;63185;45.642;13.764;2023-02-28T00:27:32;16.00;;;9.32;;
74656;SDS011;63185;45.642;13.764;2023-02-28T00:29:57;19.98;;;9.95;;
74656;SDS011;63185;45.642;13.764;2023-02-28T00:32:23;17.50;;;9.55;;
74656;SDS011;63185;45.642;13.764;2023-02-28T00:34:49;15.65;;;8.73;;
74656;SDS011;63185;45.642;13.764;2023-02-28T00:37:15;15.45;;;9.30;;
74656;SDS011;63185;45.642;13.764;2023-02-28T00:39:40;18.85;;;10.30;;
74656;SDS011;63185;45.642;13.764;2023-02-28T00:42:06;15.25;;;9.25;;
74656;SDS011;63185;45.642;13.764;2023-02-28T00:44:33;14.88;;;9.20;;
74656;SDS011;63185;45.642;13.764;2023-02-28T00:46:59;15.48;;;9.05;;
74656;SDS011;63185;45.642;13.764;2023-02-28T00:49:26;17.55;;;9.40;;
74656;SDS011;63185;45.642;13.764;2023-02-28T00:51:52;16.90;;;9.55;;
74656;SDS011;63185;45.642;13.764;2023-02-28T00:54:20;17.02;;;9.13;;
74656;SDS011;63185;45.642;13.764;2023-02-28T00:56:47;19.05;;;9.65;;
74656;SDS011;63185;45.642;13.764;2023-02-28T00:59:13;21.42;;;10.45;;
74656;SDS011;63185;45.642;13.764;2023-02-28T01:01:39;19.20;;;10.30;;
74656;SDS011;63185;45.642;13.764;2023-02-28T01:04:05;18.30;;;9.43;;
74656;SDS011;63185;45.642;13.764;2023-02-28T01:06:31;18.00;;;10.40;;
74656;SDS011;63185;45.642;13.764;2023-02-28T01:08:57;26.40;;;10.18;;
74656;SDS011;63185;45.642;13.764;2023-02-28T01:11:23;19.70;;;9.48;;
74656;SDS011;63185;45.642;13.764;2023-02-28T01:13:49;19.05;;;10.48;;
74656;SDS011;63185;45.642;13.764;2023-02-28T01:16:15;16.33;;;9.70;;
74656;SDS011;63185;45.642;13.764;2023-02-28T01:18:41;19.40;;;10.10;;
74656;SDS011;63185;45.642;13.764;2023-02-28T01:21:08;17.55;;;10.07;;
74656;SDS011;63185;45.642;13.764;2023-02-28T01:23:36;18.73;;;9.55;;
74656;SDS011;63185;45.642;13.764;2023-02-28T01:26:09;21.67;;;9.60;;
74656;SDS011;63185;45.642;13.764;2023-02-28T01:28:39;16.85;;;8.57;;
74656;SDS011;63185;45.642;13.764;2023-02-28T01:31:05;20.25;;;10.00;;
74656;SDS011;63185;45.642;13.764;2023-02-28T01:33:31;21.77;;;10.50;;
74656;SDS011;63185;45.642;13.764;2023-02-28T01:36:02;20.15;;;9.80;;
74656;SDS011;63185;45.642;13.764;2023-02-28T01:38:30;20.00;;;10.52;;
74656;SDS011;63185;45.642;13.764;2023-02-28T01:40:56;19.00;;;9.80;;
74656;SDS011;63185;45.642;13.764;2023-02-28T01:43:26;18.48;;;9.35;;
74656;SDS011;63185;45.642;13.764;2023-02-28T01:46:11;17.10;;;9.23;;
74656;SDS011;63185;45.642;13.764;2023-02-28T01:48:38;19.38;;;9.63;;
74656;SDS011;63185;45.642;13.764;2023-02-28T01:51:13;20.15;;;9.77;;
74656;SDS011;63185;45.642;13.764;2023-02-28T01:53:46;17.77;;;9.05;;
74656;SDS011;63185;45.642;13.764;2023-02-28T01:56:17;18.35;;;9.70;;
74656;SDS011;63185;45.642;13.764;2023-02-28T01:58:50;18.20;;;9.82;;
74656;SDS011;63185;45.642;13.764;2023-02-28T02:01:18;17.33;;;9.25;;
74656;SDS011;63185;45.642;13.764;2023-02-28T02:03:54;21.45;;;9.63;;
74656;SDS011;63185;45.642;13.764;2023-02-28T02:06:27;16.17;;;8.18;;
74656;SDS011;63185;45.642;13.764;2023-02-28T02:09:02;17.25;;;9.02;;
74656;SDS011;63185;45.642;13.764;2023-02-28T02:11:28;16.60;;;8.82;;
74656;SDS011;63185;45.642;13.764;2023-02-28T02:33:46;16.30;;;8.93;;
74656;SDS011;63185;45.642;13.764;2023-02-28T02:36:38;18.08;;;9.25;;
74656;SDS011;63185;45.642;13.764;2023-02-28T02:39:30;20.25;;;8.52;;
74656;SDS011;63185;45.642;13.764;2023-02-28T02:42:25;15.85;;;8.45;;
74656;SDS011;63185;45.642;13.764;2023-02-28T02:45:13;16.30;;;7.93;;
74656;SDS011;63185;45.642;13.764;2023-02-28T02:47:53;14.38;;;7.53;;
74656;SDS011;63185;45.642;13.764;2023-02-28T02:50:24;17.63;;;9.07;;
74656;SDS011;63185;45.642;13.764;2023-02-28T02:52:55;14.77;;;8.32;;
74656;SDS011;63185;45.642;13.764;2023-02-28T02:55:24;16.73;;;8.40;;
74656;SDS011;63185;45.642;13.764;2023-02-28T02:57:54;13.88;;;8.38;;
74656;SDS011;63185;45.642;13.764;2023-02-28T03:00:26;16.63;;;8.75;;
74656;SDS011;63185;45.642;13.764;2023-02-28T03:02:57;11.77;;;7.65;;
74656;SDS011;63185;45.642;13.764;2023-02-28T03:05:28;14.77;;;7.85;;
74656;SDS011;63185;45.642;13.764;2023-02-28T03:08:03;12.27;;;7.50;;
74656;SDS011;63185;45.642;13.764;2023-02-28T03:10:32;12.73;;;7.13;;
74656;SDS011;63185;45.642;13.764;2023-02-28T03:24:37;12.63;;;7.10;;
74656;SDS011;63185;45.642;13.764;2023-02-28T03:29:57;9.70;;;5.93;;
74656;SDS011;63185;45.642;13.764;2023-02-28T03:35:25;12.63;;;7.13;;
74656;SDS011;63185;45.642;13.764;2023-02-28T03:38:11;13.15;;;6.70;;
74656;SDS011;63185;45.642;13.764;2023-02-28T03:41:08;12.15;;;7.28;;
74656;SDS011;63185;45.642;13.764;2023-02-28T03:43:41;15.50;;;7.72;;
74656;SDS011;63185;45.642;13.764;2023-02-28T03:46:12;14.40;;;7.22;;
74656;SDS011;63185;45.642;13.764;2023-02-28T03:48:50;14.55;;;7.32;;
74656;SDS011;63185;45.642;13.764;2023-02-28T03:51:23;11.25;;;7.03;;
74656;SDS011;63185;45.642;13.764;2023-02-28T03:53:51;12.43;;;6.93;;
74656;SDS011;63185;45.642;13.764;2023-02-28T03:56:31;11.65;;;6.95;;
74656;SDS011;63185;45.642;13.764;2023-02-28T04:02:02;11.00;;;6.88;;
74656;SDS011;63185;45.642;13.764;2023-02-28T04:04:28;12.25;;;7.50;;
74656;SDS011;63185;45.642;13.764;2023-02-28T04:07:00;11.77;;;6.88;;
74656;SDS011;63185;45.642;13.764;2023-02-28T04:09:30;11.38;;;7.10;;
74656;SDS011;63185;45.642;13.764;2023-02-28T04:11:56;10.35;;;6.22;;
74656;SDS011;63185;45.642;13.764;2023-02-28T04:14:22;13.07;;;7.68;;
74656;SDS011;63185;45.642;13.764;2023-02-28T04:16:47;11.07;;;6.85;;
74656;SDS011;63185;45.642;13.764;2023-02-28T04:19:13;13.48;;;7.53;;
74656;SDS011;63185;45.642;13.764;2023-02-28T04:24:10;11.80;;;7.05;;
74656;SDS011;63185;45.642;13.764;2023-02-28T04:26:44;13.73;;;7.40;;
74656;SDS011;63185;45.642;13.764;2023-02-28T04:29:12;12.05;;;7.18;;
74656;SDS011;63185;45.642;13.764;2023-02-28T04:31:42;11.05;;;6.38;;
74656;SDS011;63185;45.642;13.764;2023-02-28T04:34:08;12.63;;;7.85;;
74656;SDS011;63185;45.642;13.764;2023-02-28T04:36:34;12.95;;;7.30;;
74656;SDS011;63185;45.642;13.764;2023-02-28T04:39:00;13.95;;;7.63;;
74656;SDS011;63185;45.642;13.764;2023-02-28T04:41:26;12.32;;;6.60;;
74656;SDS011;63185;45.642;13.764;2023-02-28T04:43:51;13.82;;;7.20;;
74656;SDS011;63185;45.642;13.764;2023-02-28T04:46:17;11.90;;;7.40;;
74656;SDS011;63185;45.642;13.764;2023-02-28T04:48:44;11.85;;;6.88;;
74656;SDS011;63185;45.642;13.764;2023-02-28T04:51:11;12.73;;;7.32;;
74656;SDS011;63185;45.642;13.764;2023-02-28T04:53:38;12.80;;;7.32;;
74656;SDS011;63185;45.642;13.764;2023-02-28T04:56:06;12.45;;;7.55;;
74656;SDS011;63185;45.642;13.764;2023-02-28T04:58:33;12.75;;;7.32;;
74656;SDS011;63185;45.642;13.764;2023-02-28T05:01:07;12.93;;;6.97;;
74656;SDS011;63185;45.642;13.764;2023-02-28T05:03:42;15.88;;;6.55;;
74656;SDS011;63185;45.642;13.764;2023-02-28T05:06:08;12.07;;;6.70;;
74656;SDS011;63185;45.642;13.764;2023-02-28T05:08:35;13.13;;;6.68;;
74656;SDS011;63185;45.642;13.764;2023-02-28T05:11:01;10.88;;;6.97;;
74656;SDS011;63185;45.642;13.764;2023-02-28T05:13:28;11.40;;;7.43;;
74656;SDS011;63185;45.642;13.764;2023-02-28T05:15:54;11.82;;;7.18;;
74656;SDS011;63185;45.642;13.764;2023-02-28T05:18:20;12.15;;;7.22;;
74656;SDS011;63185;45.642;13.764;2023-02-28T05:20:46;12.18;;;7.13;;
74656;SDS011;63185;45.642;13.764;2023-02-28T05:23:12;15.57;;;8.13;;
74656;SDS011;63185;45.642;13.764;2023-02-28T05:25:39;13.60;;;7.78;;
74656;SDS011;63185;45.642;13.764;2023-02-28T05:28:05;13.00;;;7.43;;
74656;SDS011;63185;45.642;13.764;2023-02-28T05:30:31;14.73;;;7.97;;
74656;SDS011;63185;45.642;13.764;2023-02-28T05:32:57;12.48;;;7.88;;
74656;SDS011;63185;45.642;13.764;2023-02-28T05:35:23;12.20;;;7.90;;
74656;SDS011;63185;45.642;13.764;2023-02-28T05:37:50;12.50;;;8.30;;
74656;SDS011;63185;45.642;13.764;2023-02-28T05:40:16;11.10;;;6.97;;
74656;SDS011;63185;45.642;13.764;2023-02-28T05:42:42;12.05;;;7.43;;
74656;SDS011;63185;45.642;13.764;2023-02-28T05:45:08;16.90;;;7.60;;
74656;SDS011;63185;45.642;13.764;2023-02-28T05:47:35;11.85;;;6.68;;
74656;SDS011;63185;45.642;13.764;2023-02-28T05:50:01;12.48;;;6.93;;
74656;SDS011;63185;45.642;13.764;2023-02-28T05:52:27;11.00;;;6.75;;
74656;SDS011;63185;45.642;13.764;2023-02-28T05:54:55;13.10;;;7.68;;
74656;SDS011;63185;45.642;13.764;2023-02-28T05:57:21;11.70;;;7.00;;
74656;SDS011;63185;45.642;13.764;2023-02-28T05:59:47;10.60;;;6.60;;
74656;SDS011;63185;45.642;13.764;2023-02-28T06:02:14;11.27;;;6.55;;
74656;SDS011;63185;45.642;13.764;2023-02-28T06:04:42;12.85;;;7.35;;
74656;SDS011;63185;45.642;13.764;2023-02-28T06:07:08;13.68;;;7.03;;
74656;SDS011;63185;45.642;13.764;2023-02-28T06:09:34;10.90;;;6.85;;
74656;SDS011;63185;45.642;13.764;2023-02-28T06:12:00;14.57;;;7.07;;
74656;SDS011;63185;45.642;13.764;2023-02-28T06:14:28;12.00;;;6.57;;
74656;SDS011;63185;45.642;13.764;2023-02-28T06:16:56;14.77;;;7.18;;
74656;SDS011;63185;45.642;13.764;2023-02-28T06:19:23;10.40;;;6.75;;
74656;SDS011;63185;45.642;13.764;2023-02-28T06:21:50;10.43;;;6.50;;
74656;SDS011;63185;45.642;13.764;2023-02-28T06:24:18;10.40;;;6.22;;
74656;SDS011;63185;45.642;13.764;2023-02-28T06:26:47;12.63;;;7.28;;
74656;SDS011;63185;45.642;13.764;2023-02-28T06:29:14;11.80;;;6.93;;
74656;SDS011;63185;45.642;13.764;2023-02-28T06:31:46;11.73;;;6.70;;
74656;SDS011;63185;45.642;13.764;2023-02-28T06:34:12;9.80;;;6.30;;
74656;SDS011;63185;45.642;13.764;2023-02-28T06:36:38;12.57;;;6.88;;
74656;SDS011;63185;45.642;13.764;2023-02-28T06:39:05;11.35;;;7.07;;
74656;SDS011;63185;45.642;13.764;2023-02-28T06:41:31;11.63;;;6.90;;
74656;SDS011;63185;45.642;13.764;2023-02-28T06:43:58;12.07;;;6.82;;
74656;SDS011;63185;45.642;13.764;2023-02-28T06:46:24;13.00;;;7.00;;
74656;SDS011;63185;45.642;13.764;2023-02-28T06:48:50;14.07;;;7.38;;
74656;SDS011;63185;45.642;13.764;2023-02-28T06:51:17;14.65;;;7.40;;
74656;SDS011;63185;45.642;13.764;2023-02-28T06:53:45;14.82;;;7.05;;
74656;SDS011;63185;45.642;13.764;2023-02-28T06:56:12;13.18;;;7.68;;
74656;SDS011;63185;45.642;13.764;2023-02-28T06:58:40;12.40;;;7.23;;
74656;SDS011;63185;45.642;13.764;2023-02-28T07:01:06;12.90;;;7.03;;
74656;SDS011;63185;45.642;13.764;2023-02-28T07:03:34;13.75;;;7.22;;
74656;SDS011;63185;45.642;13.764;2023-02-28T07:06:01;15.90;;;7.97;;
74656;SDS011;63185;45.642;13.764;2023-02-28T07:08:27;15.18;;;7.35;;
74656;SDS011;63185;45.642;13.764;2023-02-28T07:10:56;12.95;;;7.35;;
74656;SDS011;63185;45.642;13.764;2023-02-28T07:13:23;13.45;;;7.13;;
74656;SDS011;63185;45.642;13.764;2023-02-28T07:15:53;16.15;;;7.38;;
74656;SDS011;63185;45.642;13.764;2023-02-28T07:18:19;15.25;;;7.60;;
74656;SDS011;63185;45.642;13.764;2023-02-28T07:20:45;20.13;;;8.13;;
74656;SDS011;63185;45.642;13.764;2023-02-28T07:23:11;12.45;;;7.50;;
74656;SDS011;63185;45.642;13.764;2023-02-28T07:25:36;15.15;;;7.75;;
74656;SDS011;63185;45.642;13.764;2023-02-28T07:28:02;12.35;;;7.20;;
74656;SDS011;63185;45.642;13.764;2023-02-28T07:30:28;12.52;;;7.05;;
74656;SDS011;63185;45.642;13.764;2023-02-28T07:32:54;14.95;;;8.48;;
74656;SDS011;63185;45.642;13.764;2023-02-28T07:35:21;14.98;;;7.00;;
74656;SDS011;63185;45.642;13.764;2023-02-28T07:37:47;14.38;;;7.38;;
74656;SDS011;63185;45.642;13.764;2023-02-28T07:40:13;11.57;;;6.70;;
74656;SDS011;63185;45.642;13.764;2023-02-28T07:42:40;12.02;;;6.95;;
74656;SDS011;63185;45.642;13.764;2023-02-28T07:45:07;12.35;;;7.30;;
74656;SDS011;63185;45.642;13.764;2023-02-28T07:47:36;14.50;;;6.85;;
74656;SDS011;63185;45.642;13.764;2023-02-28T07:50:03;14.70;;;6.53;;
74656;SDS011;63185;45.642;13.764;2023-02-28T07:52:28;11.43;;;6.43;;
74656;SDS011;63185;45.642;13.764;2023-02-28T07:54:55;11.60;;;6.68;;
74656;SDS011;63185;45.642;13.764;2023-02-28T07:57:21;13.38;;;6.43;;
74656;SDS011;63185;45.642;13.764;2023-02-28T07:59:47;14.57;;;6.30;;
74656;SDS011;63185;45.642;13.764;2023-02-28T08:02:13;11.15;;;6.20;;
74656;SDS011;63185;45.642;13.764;2023-02-28T08:04:40;12.93;;;6.53;;
74656;SDS011;63185;45.642;13.764;2023-02-28T08:07:06;10.63;;;5.80;;
74656;SDS011;63185;45.642;13.764;2023-02-28T08:09:32;10.45;;;5.53;;
74656;SDS011;63185;45.642;13.764;2023-02-28T08:11:59;15.05;;;5.68;;
74656;SDS011;63185;45.642;13.764;2023-02-28T08:14:24;12.43;;;5.45;;
74656;SDS011;63185;45.642;13.764;2023-02-28T08:16:50;9.02;;;5.88;;
74656;SDS011;63185;45.642;13.764;2023-02-28T08:19:16;9.55;;;5.25;;
74656;SDS011;63185;45.642;13.764;2023-02-28T08:21:42;10.90;;;5.75;;
74656;SDS011;63185;45.642;13.764;2023-02-28T08:24:07;9.75;;;5.00;;
74656;SDS011;63185;45.642;13.764;2023-02-28T08:26:33;8.00;;;4.70;;
74656;SDS011;63185;45.642;13.764;2023-02-28T08:28:59;8.07;;;4.93;;
74656;SDS011;63185;45.642;13.764;2023-02-28T08:31:24;8.07;;;5.05;;
74656;SDS011;63185;45.642;13.764;2023-02-28T08:33:50;8.45;;;5.80;;
74656;SDS011;63185;45.642;13.764;2023-02-28T08:36:18;8.15;;;4.90;;
74656;SDS011;63185;45.642;13.764;2023-02-28T08:38:44;8.73;;;4.97;;
74656;SDS011;63185;45.642;13.764;2023-02-28T08:41:11;7.00;;;4.05;;
74656;SDS011;63185;45.642;13.764;2023-02-28T08:43:38;7.60;;;4.85;;
74656;SDS011;63185;45.642;13.764;2023-02-28T08:46:04;8.48;;;5.10;;
74656;SDS011;63185;45.642;13.764;2023-02-28T08:48:31;8.35;;;4.90;;
74656;SDS011;63185;45.642;13.764;2023-02-28T08:50:59;10.48;;;4.95;;
74656;SDS011;63185;45.642;13.764;2023-02-28T08:53:28;10.07;;;4.95;;
74656;SDS011;63185;45.642;13.764;2023-02-28T08:55:58;7.22;;;4.28;;
74656;SDS011;63185;45.642;13.764;2023-02-28T08:58:24;8.93;;;4.50;;
74656;SDS011;63185;45.642;13.764;2023-02-28T09:00:50;9.00;;;4.50;;
74656;SDS011;63185;45.642;13.764;2023-02-28T09:03:16;10.13;;;5.03;;
74656;SDS011;63185;45.642;13.764;2023-02-28T09:05:51;8.13;;;4.50;;
74656;SDS011;63185;45.642;13.764;2023-02-28T09:08:24;8.10;;;4.53;;
74656;SDS011;63185;45.642;13.764;2023-02-28T09:10:52;9.88;;;5.07;;
74656;SDS011;63185;45.642;13.764;2023-02-28T09:13:19;8.02;;;4.50;;
74656;SDS011;63185;45.642;13.764;2023-02-28T09:15:45;9.95;;;4.50;;
74656;SDS011;63185;45.642;13.764;2023-02-28T09:18:11;7.00;;;4.20;;
74656;SDS011;63185;45.642;13.764;2023-02-28T09:20:37;9.25;;;4.85;;
74656;SDS011;63185;45.642;13.764;2023-02-28T09:23:04;7.85;;;4.40;;
74656;SDS011;63185;45.642;13.764;2023-02-28T09:25:31;6.55;;;4.07;;
74656;SDS011;63185;45.642;13.764;2023-02-28T09:27:56;10.50;;;4.53;;
74656;SDS011;63185;45.642;13.764;2023-02-28T09:30:22;7.65;;;4.60;;
74656;SDS011;63185;45.642;13.764;2023-02-28T09:32:48;7.65;;;4.43;;
74656;SDS011;63185;45.642;13.764;2023-02-28T09:35:23;7.40;;;4.63;;
74656;SDS011;63185;45.642;13.764;2023-02-28T09:37:50;7.68;;;4.80;;
74656;SDS011;63185;45.642;13.764;2023-02-28T09:40:17;7.15;;;4.20;;
74656;SDS011;63185;45.642;13.764;2023-02-28T09:42:49;9.25;;;4.80;;
74656;SDS011;63185;45.642;13.764;2023-02-28T09:47:46;8.40;;;4.67;;
74656;SDS011;63185;45.642;13.764;2023-02-28T09:52:51;8.90;;;4.75;;
74656;SDS011;63185;45.642;13.764;2023-02-28T09:55:20;10.25;;;4.78;;
74656;SDS011;63185;45.642;13.764;2023-02-28T09:57:53;10.90;;;5.18;;
74656;SDS011;63185;45.642;13.764;2023-02-28T10:00:25;8.80;;;4.93;;
74656;SDS011;63185;45.642;13.764;2023-02-28T10:05:38;10.38;;;4.88;;
74656;SDS011;63185;45.642;13.764;2023-02-28T10:08:21;9.73;;;5.10;;
74656;SDS011;63185;45.642;13.764;2023-02-28T10:11:02;10.02;;;5.38;;
74656;SDS011;63185;45.642;13.764;2023-02-28T10:16:46;9.32;;;5.15;;
74656;SDS011;63185;45.642;13.764;2023-02-28T10:19:01;8.90;;;5.43;;
74656;SDS011;63185;45.642;13.764;2023-02-28T10:21:29;10.85;;;5.20;;
74656;SDS011;63185;45.642;13.764;2023-02-28T10:26:55;8.90;;;4.72;;
74656;SDS011;63185;45.642;13.764;2023-02-28T10:29:25;9.75;;;5.65;;
74656;SDS011;63185;45.642;13.764;2023-02-28T10:31:52;11.00;;;5.63;;
74656;SDS011;63185;45.642;13.764;2023-02-28T10:34:18;7.75;;;5.20;;
74656;SDS011;63185;45.642;13.764;2023-02-28T10:36:43;8.50;;;5.03;;
74656;SDS011;63185;45.642;13.764;2023-02-28T10:42:01;11.00;;;5.95;;
74656;SDS011;63185;45.642;13.764;2023-02-28T10:44:27;8.52;;;5.07;;
74656;SDS011;63185;45.642;13.764;2023-02-28T10:46:52;11.23;;;5.80;;
74656;SDS011;63185;45.642;13.764;2023-02-28T10:49:27;10.65;;;5.65;;
74656;SDS011;63185;45.642;13.764;2023-02-28T10:51:55;10.63;;;6.22;;
74656;SDS011;63185;45.642;13.764;2023-02-28T10:54:29;11.88;;;6.53;;
74656;SDS011;63185;45.642;13.764;2023-02-28T10:59:40;12.52;;;6.95;;
74656;SDS011;63185;45.642;13.764;2023-02-28T11:02:52;11.45;;;6.80;;
74656;SDS011;63185;45.642;13.764;2023-02-28T11:04:57;13.80;;;6.35;;
74656;SDS011;63185;45.642;13.764;2023-02-28T11:07:23;13.50;;;6.35;;
74656;SDS011;63185;45.642;13.764;2023-02-28T11:09:52;10.82;;;6.65;;
74656;SDS011;63185;45.642;13.764;2023-02-28T11:14:52;12.30;;;6.82;;
74656;SDS011;63185;45.642;13.764;2023-02-28T11:17:31;14.10;;;7.05;;
74656;SDS011;63185;45.642;13.764;2023-02-28T11:19:59;11.70;;;6.82;;
74656;SDS011;63185;45.642;13.764;2023-02-28T11:22:29;13.75;;;7.20;;
74656;SDS011;63185;45.642;13.764;2023-02-28T11:24:59;14.63;;;8.57;;
74656;SDS011;63185;45.642;13.764;2023-02-28T11:29:58;15.90;;;8.52;;
74656;SDS011;63185;45.642;13.764;2023-02-28T11:32:25;12.93;;;8.23;;
74656;SDS011;63185;45.642;13.764;2023-02-28T11:37:37;14.60;;;8.35;;
74656;SDS011;63185;45.642;13.764;2023-02-28T11:40:16;16.85;;;7.85;;
74656;SDS011;63185;45.642;13.764;2023-02-28T11:43:06;16.98;;;8.48;;
74656;SDS011;63185;45.642;13.764;2023-02-28T11:56:38;22.50;;;10.07;;
74656;SDS011;63185;45.642;13.764;2023-02-28T12:10:03;20.60;;;8.77;;
74656;SDS011;63185;45.642;13.764;2023-02-28T12:21:31;15.60;;;8.45;;
74656;SDS011;63185;45.642;13.764;2023-02-28T12:26:34;18.58;;;9.25;;
74656;SDS011;63185;45.642;13.764;2023-02-28T12:29:04;17.10;;;9.57;;
74656;SDS011;63185;45.642;13.764;2023-02-28T12:31:41;16.75;;;9.55;;
74656;SDS011;63185;45.642;13.764;2023-02-28T12:36:50;15.88;;;9.50;;
74656;SDS011;63185;45.642;13.764;2023-02-28T12:39:21;18.35;;;9.90;;
74656;SDS011;63185;45.642;13.764;2023-02-28T12:42:01;19.17;;;9.60;;
74656;SDS011;63185;45.642;13.764;2023-02-28T12:45:18;20.45;;;9.70;;
74656;SDS011;63185;45.642;13.764;2023-02-28T12:47:23;17.60;;;10.27;;
74656;SDS011;63185;45.642;13.764;2023-02-28T12:49:51;22.38;;;11.13;;
74656;SDS011;63185;45.642;13.764;2023-02-28T12:52:46;18.60;;;10.73;;
74656;SDS011;63185;45.642;13.764;2023-02-28T12:55:45;22.05;;;11.90;;
74656;SDS011;63185;45.642;13.764;2023-02-28T13:06:52;19.42;;;11.25;;
74656;SDS011;63185;45.642;13.764;2023-02-28T13:09:40;19.83;;;11.77;;
74656;SDS011;63185;45.642;13.764;2023-02-28T13:12:16;19.23;;;11.13;;
74656;SDS011;63185;45.642;13.764;2023-02-28T13:14:42;22.33;;;12.75;;
74656;SDS011;63185;45.642;13.764;2023-02-28T13:19:46;22.52;;;11.50;;
74656;SDS011;63185;45.642;13.764;2023-02-28T13:24:54;24.63;;;12.60;;
74656;SDS011;63185;45.642;13.764;2023-02-28T13:36:00;21.83;;;11.88;;
74656;SDS011;63185;45.642;13.764;2023-02-28T13:38:33;21.17;;;11.57;;
74656;SDS011;63185;45.642;13.764;2023-02-28T13:46:31;23.48;;;13.18;;
74656;SDS011;63185;45.642;13.764;2023-02-28T13:54:45;23.15;;;13.27;;
74656;SDS011;63185;45.642;13.764;2023-02-28T13:57:57;20.65;;;12.60;;
74656;SDS011;63185;45.642;13.764;2023-02-28T14:06:34;22.08;;;12.70;;
74656;SDS011;63185;45.642;13.764;2023-02-28T14:09:15;22.98;;;12.68;;
74656;SDS011;63185;45.642;13.764;2023-02-28T14:15:04;20.35;;;12.57;;
74656;SDS011;63185;45.642;13.764;2023-02-28T14:17:51;20.35;;;12.35;;
74656;SDS011;63185;45.642;13.764;2023-02-28T14:20:19;17.67;;;11.35;;
74656;SDS011;63185;45.642;13.764;2023-02-28T14:22:57;18.40;;;11.40;;
74656;SDS011;63185;45.642;13.764;2023-02-28T14:31:11;19.60;;;11.85;;
74656;SDS011;63185;45.642;13.764;2023-02-28T14:36:42;19.00;;;11.70;;
74656;SDS011;63185;45.642;13.764;2023-02-28T14:39:19;20.02;;;11.50;;
74656;SDS011;63185;45.642;13.764;2023-02-28T14:41:47;17.73;;;11.48;;
74656;SDS011;63185;45.642;13.764;2023-02-28T14:46:47;18.38;;;11.55;;
74656;SDS011;63185;45.642;13.764;2023-02-28T14:51:47;20.40;;;11.93;;
74656;SDS011;63185;45.642;13.764;2023-02-28T14:54:15;18.05;;;11.88;;
74656;SDS011;63185;45.642;13.764;2023-02-28T14:56:49;19.52;;;12.30;;
74656;SDS011;63185;45.642;13.764;2023-02-28T14:59:22;21.80;;;12.23;;
74656;SDS011;63185;45.642;13.764;2023-02-28T15:04:38;21.15;;;13.05;;
74656;SDS011;63185;45.642;13.764;2023-02-28T15:07:10;22.35;;;12.07;;
74656;SDS011;63185;45.642;13.764;2023-02-28T15:09:39;20.27;;;12.88;;
74656;SDS011;63185;45.642;13.764;2023-02-28T15:12:04;20.67;;;12.40;;
74656;SDS011;63185;45.642;13.764;2023-02-28T15:14:30;20.70;;;12.27;;
74656;SDS011;63185;45.642;13.764;2023-02-28T15:17:02;20.90;;;12.57;;
74656;SDS011;63185;45.642;13.764;2023-02-28T15:19:34;16.08;;;11.50;;
74656;SDS011;63185;45.642;13.764;2023-02-28T15:22:04;17.70;;;11.93;;
74656;SDS011;63185;45.642;13.764;2023-02-28T15:24:47;16.02;;;11.13;;
74656;SDS011;63185;45.642;13.764;2023-02-28T15:27:18;16.65;;;11.30;;
74656;SDS011;63185;45.642;13.764;2023-02-28T15:30:13;17.27;;;11.43;;
74656;SDS011;63185;45.642;13.764;2023-02-28T15:33:01;17.83;;;11.68;;
74656;SDS011;63185;45.642;13.764;2023-02-28T15:35:47;17.65;;;12.10;;
74656;SDS011;63185;45.642;13.764;2023-02-28T15:38:23;17.00;;;11.45;;
74656;SDS011;63185;45.642;13.764;2023-02-28T15:40:55;16.70;;;11.93;;
74656;SDS011;63185;45.642;13.764;2023-02-28T15:43:24;18.70;;;11.95;;
74656;SDS011;63185;45.642;13.764;2023-02-28T15:48:42;21.77;;;13.00;;
74656;SDS011;63185;45.642;13.764;2023-02-28T16:03:24;21.17;;;14.25;;
74656;SDS011;63185;45.642;13.764;2023-02-28T16:06:37;18.30;;;13.15;;
74656;SDS011;63185;45.642;13.764;2023-02-28T16:08:46;22.20;;;14.07;;
74656;SDS011;63185;45.642;13.764;2023-02-28T16:11:14;22.75;;;13.70;;
74656;SDS011;63185;45.642;13.764;2023-02-28T16:13:40;22.58;;;14.00;;
74656;SDS011;63185;45.642;13.764;2023-02-28T16:16:05;21.55;;;14.20;;
74656;SDS011;63185;45.642;13.764;2023-02-28T16:18:31;22.15;;;13.80;;
74656;SDS011;63185;45.642;13.764;2023-02-28T16:20:57;22.20;;;14.45;;
74656;SDS011;63185;45.642;13.764;2023-02-28T16:23:23;21.75;;;14.07;;
74656;SDS011;63185;45.642;13.764;2023-02-28T16:25:48;21.88;;;14.48;;
74656;SDS011;63185;45.642;13.764;2023-02-28T16:28:21;23.33;;;15.10;;
74656;SDS011;63185;45.642;13.764;2023-02-28T16:30:56;23.42;;;15.40;;
74656;SDS011;63185;45.642;13.764;2023-02-28T16:33:22;23.00;;;15.38;;
74656;SDS011;63185;45.642;13.764;2023-02-28T16:35:47;28.17;;;15.80;;
74656;SDS011;63185;45.642;13.764;2023-02-28T16:38:14;26.48;;;16.65;;
74656;SDS011;63185;45.642;13.764;2023-02-28T16:40:39;29.67;;;16.73;;
74656;SDS011;63185;45.642;13.764;2023-02-28T16:43:07;26.70;;;16.20;;
74656;SDS011;63185;45.642;13.764;2023-02-28T16:45:40;29.23;;;16.38;;
74656;SDS011;63185;45.642;13.764;2023-02-28T16:48:07;31.02;;;17.33;;
74656;SDS011;63185;45.642;13.764;2023-02-28T16:50:37;28.05;;;15.32;;
74656;SDS011;63185;45.642;13.764;2023-02-28T16:53:03;27.48;;;16.58;;
74656;SDS011;63185;45.642;13.764;2023-02-28T16:55:29;27.83;;;15.85;;
74656;SDS011;63185;45.642;13.764;2023-02-28T16:57:56;31.50;;;18.00;;
74656;SDS011;63185;45.642;13.764;2023-02-28T17:00:24;31.65;;;16.35;;
74656;SDS011;63185;45.642;13.764;2023-02-28T17:02:51;30.75;;;17.50;;
74656;SDS011;63185;45.642;13.764;2023-02-28T17:05:17;28.58;;;15.07;;
74656;SDS011;63185;45.642;13.764;2023-02-28T17:07:44;29.25;;;17.02;;
74656;SDS011;63185;45.642;13.764;2023-02-28T17:12:41;29.77;;;17.15;;
74656;SDS011;63185;45.642;13.764;2023-02-28T17:15:08;28.92;;;17.15;;
74656;SDS011;63185;45.642;13.764;2023-02-28T17:17:35;27.67;;;16.58;;
74656;SDS011;63185;45.642;13.764;2023-02-28T17:20:01;28.20;;;16.17;;
74656;SDS011;63185;45.642;13.764;2023-02-28T17:22:28;33.10;;;17.33;;
74656;SDS011;63185;45.642;13.764;2023-02-28T17:24:53;30.58;;;17.27;;
74656;SDS011;63185;45.642;13.764;2023-02-28T17:27:23;27.25;;;16.33;;
74656;SDS011;63185;45.642;13.764;2023-02-28T17:29:49;29.85;;;16.33;;
74656;SDS011;63185;45.642;13.764;2023-02-28T17:32:15;29.33;;;16.67;;
74656;SDS011;63185;45.642;13.764;2023-02-28T17:34:41;29.40;;;16.35;;